< Typhoon 201615 2016 Season Typhoon 201617 >
Typhoon 201616 (MALAKAS)
General InformationTrack Information on Google MapsDetailed Wind InformationForecast History on Google MapsAccess Analytics MapList of All Images || NewsDisaster Info.WeblogTrackbackTyphoon FrontTwiphoonTyphoon Now!Typhoon ImaginationDisaster Info. XMLResourceGoogle EarthGE AnimationAtom FeedGeoJSON
Detalied Best Track (Time Zone = UTC)
Year Month Day Hour Lat. Long. Pressure (hPa) Wind (kt) Class Image Chart
2016 9 11 18 12.5 144.8 1006 0 2 Image Chart
2016 9 12 00 12.8 143.1 1008 0 2 Image Chart
2016 9 12 06 13.2 141.9 1006 0 2 Image Chart
2016 9 12 12 13.5 140.8 1006 0 2 Image Chart
2016 9 12 18 13.8 139.4 1000 35 3 Image Chart
2016 9 13 00 14.2 138.1 996 40 3 Image Chart
2016 9 13 06 14.5 137.0 990 45 3 Image Chart
2016 9 13 12 14.7 135.9 990 45 3 Image Chart
2016 9 13 18 15.0 134.6 985 55 4 Image Chart
2016 9 14 00 15.4 133.4 975 65 5 Image Chart
2016 9 14 06 15.8 132.2 965 70 5 Image Chart
2016 9 14 12 16.3 131.2 965 70 5 Image Chart
2016 9 14 18 16.7 130.0 965 70 5 Image Chart
2016 9 15 00 16.9 128.8 965 70 5 Image Chart
2016 9 15 06 17.5 127.7 950 80 5 Image Chart
2016 9 15 12 18.4 126.7 940 85 5 Image Chart
2016 9 15 18 19.2 125.7 940 85 5 Image Chart
2016 9 16 00 20.1 124.7 940 85 5 Image Chart
2016 9 16 06 21.1 123.9 940 85 5 Image Chart
2016 9 16 09 21.5 123.7 940 85 5 Image Chart
2016 9 16 12 22.1 123.4 940 85 5 Image Chart
2016 9 16 15 22.5 123.1 940 85 5 Image Chart
2016 9 16 18 23.0 123.1 930 95 5 Image Chart
2016 9 16 21 23.6 123.0 930 95 5 Image Chart
2016 9 17 00 24.1 123.0 930 95 5 Image Chart
2016 9 17 03 24.7 122.9 930 95 5 Image Chart
2016 9 17 06 25.3 122.8 940 90 5 Image Chart
2016 9 17 09 25.6 122.7 940 90 5 Image Chart
2016 9 17 12 25.9 122.7 950 80 5 Image Chart
2016 9 17 18 26.3 122.8 950 80 5 Image Chart
2016 9 18 00 26.9 123.5 950 80 5 Image Chart
2016 9 18 06 27.4 124.2 950 80 5 Image Chart
2016 9 18 12 28.0 125.1 945 85 5 Image Chart
2016 9 18 18 28.7 126.1 940 95 5 Image Chart
2016 9 19 00 29.4 127.1 940 95 5 Image Chart
2016 9 19 03 29.7 127.6 940 95 5 Image Chart
2016 9 19 06 30.2 128.3 940 95 5 Image Chart
2016 9 19 09 30.5 129.1 940 95 5 Image Chart
2016 9 19 12 30.8 129.7 950 80 5 Image Chart
2016 9 19 15 31.1 130.5 955 75 5 Image Chart
2016 9 19 18 31.6 131.5 960 75 5 Image Chart
2016 9 19 21 32.2 132.5 960 75 5 Image Chart
2016 9 20 00 32.9 133.4 965 70 5 Image Chart
2016 9 20 02 33.3 134.1 970 70 5 Image Chart
2016 9 20 03 33.5 134.6 970 65 5 Image Chart
2016 9 20 04 33.7 135.1 980 55 4 Image Chart
2016 9 20 06 34.3 136.1 985 50 4 Image Chart
2016 9 20 08 34.9 136.8 992 45 3 Image Chart
2016 9 20 09 34.8 137.1 992 45 3 Image Chart
2016 9 20 12 34.5 138.1 1006 0 6 Image Chart
Japan Meteorological Agency Best Track Data | Correction Date : 2016-10-24
< Typhoon 201615 2016 Season Typhoon 201617 >

Help